createdAt,value
2019-03-25T00:02:00.647Z,44.57
2019-03-25T00:04:28.868Z,54.67
2019-03-25T00:06:57.305Z,50.60
2019-03-25T00:09:25.683Z,58.90
2019-03-25T00:11:54.103Z,57.33
2019-03-25T00:14:22.377Z,55.37
2019-03-25T00:16:50.462Z,50.13
2019-03-25T00:19:18.490Z,59.17
2019-03-25T00:21:46.529Z,50.50
2019-03-25T00:24:14.524Z,53.47
2019-03-25T00:26:42.759Z,46.90
2019-03-25T00:29:10.843Z,51.43
2019-03-25T00:31:39.066Z,49.43
2019-03-25T00:34:07.053Z,52.73
2019-03-25T00:36:35.096Z,55.10
2019-03-25T00:39:04.429Z,52.10
2019-03-25T00:41:33.489Z,43.13
2019-03-25T00:44:01.604Z,35.53
2019-03-25T00:46:29.929Z,35.40
2019-03-25T00:48:57.935Z,34.60
2019-03-25T00:51:26.232Z,33.83
2019-03-25T00:53:54.183Z,39.33
2019-03-25T00:56:22.230Z,38.80
2019-03-25T00:58:50.418Z,36.77
2019-03-25T01:01:18.470Z,29.43
2019-03-25T01:03:46.626Z,27.33
2019-03-25T01:06:14.820Z,30.60
2019-03-25T01:08:42.889Z,30.23
2019-03-25T01:11:10.975Z,29.53
2019-03-25T01:13:39.093Z,26.60
2019-03-25T01:16:07.085Z,33.60
2019-03-25T01:18:35.247Z,24.30
2019-03-25T01:21:04.406Z,30.43
2019-03-25T01:23:32.389Z,24.13
2019-03-25T01:26:00.442Z,26.67
2019-03-25T01:28:28.891Z,22.63
2019-03-25T01:30:56.884Z,23.43
2019-03-25T01:33:24.882Z,24.50
2019-03-25T01:35:52.921Z,19.20
2019-03-25T01:38:21.207Z,21.00
2019-03-25T01:40:49.506Z,16.10
2019-03-25T01:43:17.750Z,20.43
2019-03-25T01:45:45.785Z,20.57
2019-03-25T01:48:13.997Z,19.93
2019-03-25T01:50:42.266Z,18.23
2019-03-25T01:53:10.367Z,28.00
2019-03-25T01:55:38.362Z,17.90
2019-03-25T01:58:06.453Z,15.40
2019-03-25T02:00:55.905Z,17.23
2019-03-25T02:03:27.145Z,18.67
2019-03-25T02:05:55.190Z,15.47
2019-03-25T02:08:23.265Z,19.33
2019-03-25T02:10:51.294Z,18.50
2019-03-25T02:13:19.307Z,16.83
2019-03-25T02:15:47.500Z,22.67
2019-03-25T02:18:15.458Z,17.70
2019-03-25T02:20:43.618Z,24.00
2019-03-25T02:23:12.914Z,18.80
2019-03-25T02:25:41.071Z,14.80
2019-03-25T02:28:09.147Z,15.53
2019-03-25T02:30:37.375Z,16.60
2019-03-25T02:33:05.495Z,15.43
2019-03-25T02:35:33.560Z,16.73
2019-03-25T02:38:01.618Z,14.80
2019-03-25T02:40:29.661Z,21.40
2019-03-25T02:42:57.779Z,13.30
2019-03-25T02:45:25.939Z,11.03
2019-03-25T02:47:53.973Z,13.53
2019-03-25T02:50:22.061Z,15.53
2019-03-25T02:52:50.109Z,14.47
2019-03-25T02:55:18.124Z,17.63
2019-03-25T02:57:46.402Z,18.70
2019-03-25T03:00:20.170Z,18.43
2019-03-25T03:02:48.215Z,12.77
2019-03-25T03:05:16.383Z,16.30
2019-03-25T03:07:44.482Z,18.23
2019-03-25T03:10:15.390Z,17.70
2019-03-25T03:12:43.563Z,14.97
2019-03-25T03:15:12.032Z,12.60
2019-03-25T03:17:40.056Z,8.77
2019-03-25T03:20:08.083Z,9.67
2019-03-25T03:22:36.171Z,16.47
2019-03-25T03:25:04.323Z,13.47
2019-03-25T03:27:32.339Z,13.47
2019-03-25T03:30:01.035Z,13.80
2019-03-25T03:32:30.386Z,10.60
2019-03-25T03:34:58.493Z,8.40
2019-03-25T03:37:26.774Z,16.83
2019-03-25T03:39:54.847Z,9.90
2019-03-25T03:42:23.329Z,9.90
2019-03-25T03:44:51.446Z,12.33
2019-03-25T03:47:19.499Z,11.63
2019-03-25T03:49:47.768Z,10.30
2019-03-25T03:52:15.898Z,9.03
2019-03-25T03:54:44.600Z,21.83
2019-03-25T03:57:13.291Z,13.83
2019-03-25T03:59:41.945Z,14.20
2019-03-25T04:02:09.957Z,9.00
2019-03-25T04:04:38.011Z,21.50
2019-03-25T04:07:05.977Z,9.20
2019-03-25T04:09:34.035Z,14.20
2019-03-25T04:12:02.189Z,12.33
2019-03-25T04:14:30.265Z,14.10
2019-03-25T04:16:58.290Z,12.93
2019-03-25T04:19:27.511Z,14.80
2019-03-25T04:21:55.581Z,19.83
2019-03-25T04:24:23.587Z,13.47
2019-03-25T04:26:52.595Z,11.60
2019-03-25T04:29:20.681Z,15.53
2019-03-25T04:31:49.026Z,18.20
2019-03-25T04:34:17.086Z,16.23
2019-03-25T04:36:45.124Z,18.70
2019-03-25T04:39:13.142Z,13.17
2019-03-25T04:41:41.291Z,9.90
2019-03-25T04:44:09.366Z,10.23
2019-03-25T04:46:37.424Z,24.10
2019-03-25T04:49:05.421Z,14.30
2019-03-25T04:51:33.450Z,12.90
2019-03-25T04:54:02.453Z,11.30
2019-03-25T04:56:39.133Z,17.97
2019-03-25T04:59:00.577Z,8.60
2019-03-25T05:01:28.639Z,7.97
2019-03-25T05:03:56.618Z,16.40
2019-03-25T05:06:24.642Z,15.60
2019-03-25T05:08:52.656Z,22.10
2019-03-25T05:11:30.244Z,12.00
2019-03-25T05:13:50.795Z,17.17
2019-03-25T05:16:18.913Z,21.10
2019-03-25T05:18:46.961Z,26.87
2019-03-25T05:21:15.035Z,11.47
2019-03-25T05:23:43.029Z,21.43
2019-03-25T05:26:11.211Z,13.17
2019-03-25T05:28:39.293Z,11.50
2019-03-25T05:31:07.387Z,17.33
2019-03-25T05:33:35.585Z,16.53
2019-03-25T05:36:03.639Z,12.47
2019-03-25T05:38:31.656Z,21.20
2019-03-25T05:40:59.741Z,13.93
2019-03-25T05:43:27.804Z,22.20
2019-03-25T05:45:56.096Z,14.97
2019-03-25T05:48:24.503Z,18.40
2019-03-25T05:50:52.542Z,23.60
2019-03-25T05:53:20.634Z,18.60
2019-03-25T05:55:48.681Z,21.80
2019-03-25T05:58:16.717Z,16.23
2019-03-25T06:00:44.785Z,29.27
2019-03-25T06:03:12.829Z,15.80
2019-03-25T06:05:40.916Z,21.80
2019-03-25T06:08:09.048Z,17.33
2019-03-25T06:10:37.709Z,20.13
2019-03-25T06:13:05.865Z,18.20
2019-03-25T06:15:34.014Z,22.27
2019-03-25T06:18:02.087Z,19.20
2019-03-25T06:20:30.080Z,22.70
2019-03-25T06:22:58.150Z,11.97
2019-03-25T06:25:26.267Z,14.13
2019-03-25T06:27:54.258Z,20.27
2019-03-25T06:30:22.401Z,19.33
2019-03-25T06:32:50.553Z,13.00
2019-03-25T06:35:18.677Z,15.10
2019-03-25T06:37:46.948Z,21.03
2019-03-25T06:40:15.113Z,20.00
2019-03-25T06:42:43.905Z,15.17
2019-03-25T06:45:12.300Z,20.40
2019-03-25T06:47:40.473Z,18.10
2019-03-25T06:50:09.445Z,24.30
2019-03-25T06:52:37.513Z,20.77
2019-03-25T06:55:06.966Z,19.63
2019-03-25T06:57:35.040Z,19.20
2019-03-25T07:00:03.875Z,14.50
2019-03-25T07:02:32.721Z,11.40
2019-03-25T07:05:00.979Z,12.83
2019-03-25T07:07:29.462Z,19.20
2019-03-25T07:09:57.473Z,16.87
2019-03-25T07:12:25.669Z,14.13
2019-03-25T07:14:55.044Z,14.83
2019-03-25T07:17:23.196Z,12.50
2019-03-25T07:19:51.430Z,14.20
2019-03-25T07:22:19.715Z,19.80
2019-03-25T07:24:48.349Z,18.90
2019-03-25T07:27:16.427Z,18.27
2019-03-25T07:29:44.405Z,18.00
2019-03-25T07:32:12.544Z,17.50
2019-03-25T07:34:41.349Z,15.73
2019-03-25T07:37:09.539Z,18.03
2019-03-25T07:39:37.538Z,15.93
2019-03-25T07:42:05.849Z,11.83
2019-03-25T07:44:33.853Z,17.10
2019-03-25T07:47:01.943Z,15.37
2019-03-25T07:49:30.027Z,17.03
2019-03-25T07:51:58.112Z,16.40
2019-03-25T07:54:26.182Z,15.17
2019-03-25T07:56:54.535Z,17.70
2019-03-25T07:59:22.699Z,16.60
2019-03-25T08:01:50.858Z,23.67
2019-03-25T08:04:18.912Z,11.37
2019-03-25T08:06:46.936Z,16.53
2019-03-25T08:09:14.926Z,24.17
2019-03-25T08:11:42.939Z,15.00
2019-03-25T08:14:11.052Z,12.57
2019-03-25T08:16:39.169Z,17.00
2019-03-25T08:19:07.207Z,11.23
2019-03-25T08:21:35.252Z,11.40
2019-03-25T08:24:03.259Z,13.33
2019-03-25T08:26:31.241Z,12.33
2019-03-25T08:28:59.495Z,19.37
2019-03-25T08:31:27.537Z,18.40
2019-03-25T08:33:55.973Z,9.50
2019-03-25T08:36:24.121Z,16.53
2019-03-25T08:38:52.137Z,15.40
2019-03-25T08:41:20.125Z,21.43
2019-03-25T08:43:50.311Z,12.00
2019-03-25T08:46:18.087Z,10.87
2019-03-25T08:48:46.147Z,10.47
2019-03-25T08:51:14.245Z,13.03
2019-03-25T08:53:42.358Z,12.50
2019-03-25T08:56:10.334Z,10.13
2019-03-25T08:58:38.422Z,14.87
2019-03-25T09:01:06.438Z,18.93
2019-03-25T09:03:35.526Z,15.50
2019-03-25T09:06:03.663Z,12.33
2019-03-25T09:08:31.792Z,10.33
2019-03-25T09:10:59.876Z,10.70
2019-03-25T09:13:27.857Z,21.30
2019-03-25T09:15:55.929Z,17.03
2019-03-25T09:18:24.101Z,6.73
2019-03-25T09:20:52.145Z,15.53
2019-03-25T09:23:20.252Z,14.47
2019-03-25T09:25:48.377Z,11.60
2019-03-25T09:28:24.249Z,9.20
2019-03-25T09:31:19.118Z,14.90
2019-03-25T09:33:47.921Z,6.90
2019-03-25T09:36:20.852Z,9.33
2019-03-25T09:38:49.118Z,17.50
2019-03-25T09:41:17.155Z,14.90
2019-03-25T09:43:45.325Z,5.23
2019-03-25T09:46:13.318Z,17.50
2019-03-25T09:48:41.331Z,11.37
2019-03-25T09:51:09.457Z,12.73
2019-03-25T09:53:37.437Z,15.03
2019-03-25T09:56:05.480Z,9.00
2019-03-25T09:58:36.411Z,20.23
2019-03-25T10:01:03.914Z,9.40
2019-03-25T10:03:31.946Z,12.23
2019-03-25T10:06:00.242Z,11.37
2019-03-25T10:08:28.294Z,9.50
2019-03-25T10:10:56.297Z,7.00
2019-03-25T10:13:24.338Z,8.57
2019-03-25T10:15:52.468Z,13.40
2019-03-25T10:18:20.721Z,14.23
2019-03-25T10:20:48.848Z,14.00
2019-03-25T10:23:16.989Z,9.17
2019-03-25T10:25:45.143Z,14.27
2019-03-25T10:28:13.183Z,17.60
2019-03-25T10:30:41.222Z,9.70
2019-03-25T10:33:09.325Z,8.30
2019-03-25T10:35:37.308Z,7.23
2019-03-25T10:38:05.354Z,15.53
2019-03-25T10:40:33.440Z,18.13
2019-03-25T10:43:02.877Z,7.37
2019-03-25T10:45:30.897Z,15.73
2019-03-25T10:47:58.963Z,11.00
2019-03-25T10:50:26.998Z,10.17
2019-03-25T10:52:55.223Z,12.37
2019-03-25T10:55:23.373Z,10.37
2019-03-25T10:57:51.565Z,14.80
2019-03-25T11:00:19.636Z,10.30
2019-03-25T11:02:47.812Z,12.33
2019-03-25T11:05:16.014Z,18.27
2019-03-25T11:07:44.127Z,9.03
2019-03-25T11:10:12.689Z,13.53
2019-03-25T11:12:40.797Z,7.30
2019-03-25T11:15:11.206Z,11.03
2019-03-25T11:17:39.323Z,11.23
2019-03-25T11:20:08.873Z,10.87
2019-03-25T11:22:37.084Z,11.50
2019-03-25T11:25:05.641Z,8.67
2019-03-25T11:27:33.717Z,7.30
2019-03-25T11:30:02.228Z,11.70
2019-03-25T11:32:31.408Z,9.00
2019-03-25T11:34:59.468Z,5.60
2019-03-25T11:37:27.517Z,6.40
2019-03-25T11:39:55.577Z,7.30
2019-03-25T11:42:23.623Z,11.40
2019-03-25T11:44:51.897Z,7.83
2019-03-25T11:47:20.006Z,10.53
2019-03-25T11:49:48.073Z,16.90
2019-03-25T11:52:18.000Z,4.03
2019-03-25T11:54:47.234Z,8.70
2019-03-25T11:57:15.281Z,8.13
2019-03-25T11:59:43.310Z,6.17
2019-03-25T12:02:17.589Z,6.73
2019-03-25T12:04:41.600Z,9.10
2019-03-25T12:07:09.808Z,7.90
2019-03-25T12:09:38.041Z,15.47
2019-03-25T12:12:06.078Z,7.93
2019-03-25T12:14:34.097Z,12.17
2019-03-25T12:17:02.246Z,7.47
2019-03-25T12:19:30.328Z,6.20
2019-03-25T12:21:58.420Z,4.67
2019-03-25T12:24:26.462Z,6.07
2019-03-25T12:26:54.585Z,5.30
2019-03-25T12:29:29.960Z,6.53
2019-03-25T12:31:52.753Z,6.40
2019-03-25T12:34:20.987Z,3.23
2019-03-25T12:36:49.320Z,5.43
2019-03-25T12:39:17.329Z,6.23
2019-03-25T12:41:45.354Z,5.27
2019-03-25T12:44:13.523Z,8.60
2019-03-25T12:46:41.506Z,7.80
2019-03-25T12:49:09.631Z,6.47
2019-03-25T12:51:37.752Z,4.93
2019-03-25T12:54:05.977Z,6.07
2019-03-25T12:56:34.062Z,5.30
2019-03-25T12:59:02.476Z,4.70
2019-03-25T13:01:30.596Z,7.10
2019-03-25T13:03:58.816Z,4.20
2019-03-25T13:06:26.855Z,3.60
2019-03-25T13:08:54.949Z,6.30
2019-03-25T13:11:22.953Z,5.93
2019-03-25T13:13:50.957Z,3.93
2019-03-25T13:16:19.025Z,7.40
2019-03-25T13:18:47.165Z,2.90
2019-03-25T13:21:15.481Z,6.63
2019-03-25T13:23:43.589Z,6.20
2019-03-25T13:26:11.790Z,3.83
2019-03-25T13:28:39.818Z,7.87
2019-03-25T13:31:07.937Z,6.10
2019-03-25T13:33:36.337Z,8.13
2019-03-25T13:36:05.602Z,15.20
2019-03-25T13:38:33.745Z,8.60
2019-03-25T13:41:01.855Z,8.50
2019-03-25T13:43:29.825Z,11.87
2019-03-25T13:46:05.390Z,3.07
2019-03-25T13:48:27.925Z,14.87
2019-03-25T13:50:55.933Z,5.43
2019-03-25T13:53:24.001Z,9.57
2019-03-25T13:55:52.193Z,12.73
2019-03-25T13:58:20.224Z,5.10
2019-03-25T14:00:48.301Z,2.47
2019-03-25T14:03:16.367Z,6.13
2019-03-25T14:05:44.415Z,7.13
2019-03-25T14:08:12.417Z,3.60
2019-03-25T14:10:40.820Z,8.23
2019-03-25T14:13:08.846Z,6.87
2019-03-25T14:15:36.878Z,7.27
2019-03-25T14:18:05.207Z,17.20
2019-03-25T14:20:34.479Z,17.77
2019-03-25T14:23:02.657Z,6.17
2019-03-25T14:25:30.696Z,6.30
2019-03-25T14:27:59.268Z,1.83
2019-03-25T14:30:27.433Z,3.13
2019-03-25T14:32:55.473Z,9.90
2019-03-25T14:35:23.590Z,3.50
2019-03-25T14:37:51.961Z,8.60
2019-03-25T14:40:19.933Z,0.90
2019-03-25T14:42:47.965Z,4.90
2019-03-25T14:45:26.042Z,3.50
2019-03-25T14:47:46.105Z,4.43
2019-03-25T14:50:14.237Z,7.33
2019-03-25T14:52:42.337Z,1.73
2019-03-25T14:55:10.353Z,6.30
2019-03-25T14:57:38.626Z,3.97
2019-03-25T15:00:08.005Z,2.20
2019-03-25T15:02:36.131Z,0.83
2019-03-25T15:05:05.821Z,8.73
2019-03-25T15:07:33.893Z,7.57
2019-03-25T15:10:03.821Z,1.97
2019-03-25T15:12:31.953Z,1.00
2019-03-25T15:15:00.306Z,6.37
2019-03-25T15:17:28.708Z,5.90
2019-03-25T15:19:56.719Z,6.60
2019-03-25T15:22:24.728Z,2.60
2019-03-25T15:24:52.912Z,2.60
2019-03-25T15:27:21.086Z,3.50
2019-03-25T15:29:49.199Z,1.83
2019-03-25T15:32:18.698Z,10.80
2019-03-25T15:34:46.980Z,5.80
2019-03-25T15:37:15.096Z,4.50
2019-03-25T15:39:47.021Z,2.30
2019-03-25T15:42:13.206Z,2.83
2019-03-25T15:44:41.250Z,5.27
2019-03-25T15:47:09.574Z,4.43
2019-03-25T15:49:37.694Z,0.97
2019-03-25T15:52:05.942Z,27.50
2019-03-25T15:54:34.214Z,5.50
2019-03-25T15:57:02.447Z,15.43
2019-03-25T15:59:30.569Z,3.00
2019-03-25T16:01:58.747Z,11.40
2019-03-25T16:04:27.308Z,1.60
2019-03-25T16:06:55.298Z,2.40
2019-03-25T16:09:23.439Z,2.40
2019-03-25T16:11:51.573Z,2.40
2019-03-25T16:14:19.627Z,1.27
2019-03-25T16:16:48.510Z,1.67
2019-03-25T16:19:16.602Z,3.20
2019-03-25T16:21:44.601Z,3.23
2019-03-25T16:24:13.745Z,6.20
2019-03-25T16:26:44.033Z,1.80
2019-03-25T16:29:12.207Z,1.73
2019-03-25T16:31:40.312Z,0.80
2019-03-25T16:34:08.403Z,19.47
2019-03-25T16:36:36.566Z,0.70
2019-03-25T16:39:05.870Z,7.27
2019-03-25T16:41:35.839Z,1.27
2019-03-25T16:44:04.072Z,1.90
2019-03-25T16:46:32.077Z,0.40
2019-03-25T16:49:00.122Z,0.50
2019-03-25T16:51:28.263Z,1.00
2019-03-25T16:53:56.279Z,2.30
2019-03-25T16:56:24.336Z,0.60
2019-03-25T16:58:52.486Z,0.30
2019-03-25T17:01:20.526Z,0.40
2019-03-25T17:03:48.646Z,1.63
2019-03-25T17:06:16.884Z,1.47
2019-03-25T17:08:44.875Z,0.87
2019-03-25T17:11:13.095Z,0.40
2019-03-25T17:13:41.294Z,0.57
2019-03-25T17:16:09.482Z,0.40
2019-03-25T17:18:37.544Z,0.93
2019-03-25T17:21:05.649Z,5.80
2019-03-25T17:23:33.722Z,12.40
2019-03-25T17:26:01.872Z,4.60
2019-03-25T17:28:30.011Z,2.07
2019-03-25T17:30:58.038Z,9.43
2019-03-25T17:33:27.150Z,9.93
2019-03-25T17:35:55.497Z,15.20
2019-03-25T17:38:23.680Z,1.80
2019-03-25T17:40:51.821Z,1.30
2019-03-25T17:43:19.926Z,1.27
2019-03-25T17:45:48.033Z,85.33
2019-03-25T17:48:16.145Z,6.73
2019-03-25T17:50:44.206Z,2.97
2019-03-25T17:53:12.281Z,2.90
2019-03-25T17:55:40.498Z,8.30
2019-03-25T17:58:08.770Z,2.90
2019-03-25T18:01:17.271Z,3.23
2019-03-25T18:03:45.333Z,4.53
2019-03-25T18:06:13.592Z,4.00
2019-03-25T18:08:41.963Z,1.57
2019-03-25T18:11:10.050Z,5.40
2019-03-25T18:13:38.157Z,9.50
2019-03-25T18:16:06.252Z,2.50
2019-03-25T18:18:34.336Z,4.47
2019-03-25T18:21:02.495Z,8.50
2019-03-25T18:23:30.625Z,7.67
2019-03-25T18:25:58.722Z,16.80
2019-03-25T18:28:26.813Z,33.90
2019-03-25T18:30:54.835Z,13.23
2019-03-25T18:33:23.313Z,8.43
2019-03-25T18:35:51.375Z,5.97
2019-03-25T18:38:19.693Z,6.87
2019-03-25T18:40:47.729Z,2.77
2019-03-25T18:43:15.806Z,3.00
2019-03-25T18:45:43.818Z,3.43
2019-03-25T18:48:11.990Z,4.63
2019-03-25T18:50:39.990Z,3.40
2019-03-25T18:53:08.263Z,2.50
2019-03-25T18:55:36.373Z,45.03
2019-03-25T18:58:04.512Z,15.43
2019-03-25T19:00:33.598Z,4.27
2019-03-25T19:03:02.108Z,4.27
2019-03-25T19:05:30.296Z,4.20
2019-03-25T19:08:00.040Z,4.23
2019-03-25T19:10:28.282Z,4.23
2019-03-25T19:12:56.304Z,3.20
2019-03-25T19:15:25.732Z,2.53
2019-03-25T19:17:53.819Z,1.87
2019-03-25T19:20:21.861Z,1.93
2019-03-25T19:22:49.923Z,2.87
2019-03-25T19:25:18.069Z,4.60
2019-03-25T19:27:46.141Z,3.07
2019-03-25T19:30:14.912Z,2.90
2019-03-25T19:32:42.976Z,6.77
2019-03-25T19:35:11.357Z,2.53
2019-03-25T19:37:39.438Z,13.50
2019-03-25T19:40:07.971Z,4.63
2019-03-25T19:42:36.195Z,3.40
2019-03-25T19:45:06.076Z,6.00
2019-03-25T19:47:34.061Z,11.80
2019-03-25T19:50:02.217Z,6.20
2019-03-25T19:52:30.370Z,10.80
2019-03-25T19:54:58.502Z,16.60
2019-03-25T19:57:28.363Z,6.13
2019-03-25T19:59:56.728Z,27.30
2019-03-25T20:02:24.911Z,49.50
2019-03-25T20:04:53.045Z,24.77
2019-03-25T20:07:21.357Z,9.23
2019-03-25T20:09:49.607Z,7.10
2019-03-25T20:12:17.924Z,7.27
2019-03-25T20:14:46.101Z,13.30
2019-03-25T20:17:14.151Z,6.53
2019-03-25T20:19:42.253Z,8.17
2019-03-25T20:22:10.460Z,4.03
2019-03-25T20:24:38.495Z,5.50
2019-03-25T20:27:06.705Z,6.93
2019-03-25T20:29:35.022Z,4.37
2019-03-25T20:32:03.289Z,3.83
2019-03-25T20:34:31.515Z,2.97
2019-03-25T20:36:59.590Z,4.23
2019-03-25T20:39:27.708Z,6.27
2019-03-25T20:41:55.829Z,3.63
2019-03-25T20:44:23.959Z,3.97
2019-03-25T20:46:52.170Z,4.47
2019-03-25T20:49:20.354Z,8.07
2019-03-25T20:54:41.190Z,6.07
2019-03-25T20:57:09.347Z,4.63
2019-03-25T20:59:37.577Z,3.03
2019-03-25T21:02:05.715Z,3.13
2019-03-25T21:04:33.851Z,3.90
2019-03-25T21:07:01.959Z,3.33
2019-03-25T21:09:30.199Z,3.10
2019-03-25T21:11:58.401Z,2.87
2019-03-25T21:14:26.626Z,3.10
2019-03-25T21:16:54.724Z,2.17
2019-03-25T21:19:22.773Z,8.43
2019-03-25T21:21:50.815Z,1.80
2019-03-25T21:24:19.020Z,1.90
2019-03-25T21:26:47.423Z,2.60
2019-03-25T21:29:15.833Z,6.70
2019-03-25T21:31:44.112Z,7.20
2019-03-25T21:34:12.334Z,3.97
2019-03-25T21:36:41.425Z,9.40
2019-03-25T21:39:09.629Z,8.47
2019-03-25T21:42:02.935Z,8.00
2019-03-25T21:44:31.275Z,6.77
2019-03-25T21:46:59.334Z,10.57
2019-03-25T21:49:28.599Z,5.53
2019-03-25T21:51:56.774Z,8.17
2019-03-25T21:54:25.084Z,8.83
2019-03-25T21:56:53.363Z,12.73
2019-03-25T21:59:21.472Z,8.40
2019-03-25T22:01:49.612Z,9.53
2019-03-25T22:04:18.045Z,10.00
2019-03-25T22:06:46.368Z,11.33
2019-03-25T22:09:14.428Z,10.33
2019-03-25T22:11:42.606Z,11.73
2019-03-25T22:14:10.850Z,10.57
2019-03-25T22:16:39.100Z,10.50
2019-03-25T22:19:07.330Z,11.80
2019-03-25T22:21:35.464Z,13.07
2019-03-25T22:24:03.498Z,11.57
2019-03-25T22:26:31.606Z,12.63
2019-03-25T22:28:59.658Z,13.43
2019-03-25T22:31:27.849Z,17.00
2019-03-25T22:33:56.054Z,16.23
2019-03-25T22:36:24.241Z,14.83
2019-03-25T22:38:52.301Z,15.27
2019-03-25T22:41:20.448Z,14.13
2019-03-25T22:43:48.482Z,18.50
2019-03-25T22:46:16.581Z,14.83
2019-03-25T22:48:44.749Z,14.43
2019-03-25T22:51:12.796Z,13.43
2019-03-25T22:53:40.863Z,13.40
2019-03-25T22:56:09.001Z,13.90
2019-03-25T22:58:37.106Z,16.60
2019-03-25T23:01:05.594Z,18.57
2019-03-25T23:03:39.156Z,15.50
2019-03-25T23:06:03.849Z,15.40
2019-03-25T23:08:32.083Z,16.90
2019-03-25T23:11:00.120Z,16.90
2019-03-25T23:13:28.431Z,16.73
2019-03-25T23:15:56.469Z,15.70
2019-03-25T23:18:24.577Z,16.23
2019-03-25T23:20:52.736Z,15.80
2019-03-25T23:23:20.806Z,19.73
2019-03-25T23:25:48.928Z,16.50
2019-03-25T23:28:17.104Z,20.37
2019-03-25T23:30:45.280Z,17.03
2019-03-25T23:33:13.540Z,18.97
2019-03-25T23:35:41.613Z,17.80
2019-03-25T23:38:09.738Z,15.07
2019-03-25T23:40:37.842Z,16.50
2019-03-25T23:43:06.133Z,18.07
2019-03-25T23:45:34.165Z,17.20
2019-03-25T23:48:02.440Z,16.73
2019-03-25T23:50:30.623Z,17.73
2019-03-25T23:52:58.886Z,17.33
2019-03-25T23:55:26.956Z,14.43
2019-03-25T23:57:54.943Z,13.97
